Home > Products > Valid Products > TAF

000
FTUS46 KMFR 222034 AAB
TAFOTH
TAF AMD
KOTH 222034Z 2221/2318 VRB04KT 3SM BR OVC007=



000
FTUS46 KMFR 221913 AAA
TAFOTH
TAF AMD
KOTH 221913Z 2219/2318 VRB04KT P6SM OVC005=



000
FTUS46 KMFR 221733
TAFRBG
TAF
KRBG 221733Z 2218/2318 VRB02KT P6SM SCT005 BKN015 OVC045
     FM222100 VRB02KT P6SM BKN025
     FM230400 VRB02KT 5SM BR OVC015
     FM230700 00000KT 1SM BR VCFG OVC005=



000
FTUS46 KMFR 221733
TAFOTH
TAF
KOTH 221733Z 2218/2318 VRB04KT P6SM SCT005 BKN010 OVC060=



000
FTUS46 KMFR 221733
TAFMFR
TAF
KMFR 221733Z 2218/2318 VRB02KT P6SM BKN045
     FM230900 00000KT 3SM BR OVC006
     FM231200 00000KT 1/2SM FG OVC002=



000
FTUS46 KMFR 221733
TAFLMT
TAF
KLMT 221733Z 2218/2318 30011KT P6SM BKN035
     FM222100 31008KT P6SM BKN050
     FM230300 30003KT P6SM SCT020=



000
FTUS46 KMFR 221516 AAA
TAFOTH
TAF AMD
KOTH 221516Z 2215/2312 25009KT 5SM -RA BR SCT004 BKN010 OVC060
     FM221900 30005KT P6SM OVC010=



000
FTUS46 KMFR 221436 AAA
TAFRBG
TAF AMD
KRBG 221436Z 2215/2312 00000KT P6SM BKN025 OVC035
      TEMPO 2215/2217 2SM -SHRA BR
     FM222200 VRB02KT P6SM BKN025
     FM230700 VRB02KT 1SM BR OVC004=



000
FTUS46 KMFR 221419 AAA
TAFLMT
TAF AMD
KLMT 221419Z 2214/2312 27012G23KT P6SM OVC035
     FM221800 30010KT P6SM BKN035
     FM230100 30003KT P6SM SCT020=



000
FTUS46 KMFR 221418 AAC
TAFMFR
TAF AMD
KMFR 221418Z 2214/2312 00000KT 5SM -RA BR OVC035
     FM221700 00000KT P6SM BKN035
     FM230900 00000KT 3SM BR OVC006=



000
FTUS46 KMFR 221303 AAB
TAFMFR
TAF AMD
KMFR 221303Z 2213/2312 00000KT P6SM -RA OVC035
     FM221400 00000KT 1/2SM FG VCSH OVC002
     FM221700 00000KT P6SM BKN035
     FM230900 00000KT 3SM BR OVC006=



000
FTUS46 KMFR 221303 AAB
TAFMFR
TAF AMD
KMFR 221303Z 2213/2312 00000KT P6SM -RA OVC035
     FM221400 00000KT 1/2SM FG VCSH OVC002
     FM221700 00000KT P6SM BKN035
     FM230900 00000KT 3SM BR OVC006=



000
FTUS46 KMFR 221144 AAA
TAFMFR
TAF AMD
KMFR 221144Z 2212/2312 00000KT P6SM VCSH FEW003 SCT040 OVC070
     FM221300 00000KT 1/2SM FG VCSH OVC002
     FM221700 00000KT P6SM BKN035
     FM230900 00000KT 3SM BR OVC006=



000
FTUS46 KMFR 221139
TAFMFR
TAF
KMFR 221139Z 2212/2312 00000KT P6SM VCSH FEW003 BKN020 OVC035
     FM221300 00000KT 1/2SM FG VCSH OVC002
     FM221700 00000KT P6SM BKN035
     FM230900 00000KT 3SM BR OVC006=



000
FTUS46 KMFR 221139
TAFRBG
TAF
KRBG 221139Z 2212/2312 00000KT P6SM -SHRA BKN025 OVC035
      TEMPO 2212/2215 SCT025
     FM222200 VRB02KT P6SM BKN025
     FM230700 VRB02KT 1SM BR OVC004=



000
FTUS46 KMFR 221139
TAFLMT
TAF
KLMT 221139Z 2212/2312 27012G23KT P6SM BKN020
     FM221800 30010KT P6SM BKN035
     FM230100 30003KT P6SM SCT020=



000
FTUS46 KMFR 221139
TAFOTH
TAF
KOTH 221139Z 2212/2312 25009KT 5SM -RA BR OVC004
     FM221900 30005KT P6SM OVC010=



000
FTUS46 KMFR 220911 AAB
TAFMFR
TAF AMD
KMFR 220911Z 2209/2306 15003KT P6SM VCSH SCT040 BKN050 OVC100
     FM221100 00000KT 5SM -SHRA BR FEW003 BKN020 OVC035
     FM221300 00000KT 1/2SM FG OVC002=



000
FTUS46 KMFR 220911 AAA
TAFOTH
TAF AMD
KOTH 220911Z 2209/2306 24010G15KT 3SM BR BKN004 OVC008
     FM221100 15004KT 2SM BR OVC008=



000
FTUS46 KMFR 220551 CCA
TAFRBG
TAF COR
KRBG 220551Z 2206/2306 15003KT P6SM VCSH SCT040 BKN050 OVC100
     FM220900 00000KT 5SM -SHRA BR FEW003 BKN020 OVC035
     FM221300 00000KT 1/2SM FG OVC002=



000
FTUS46 KMFR 220549
TAFLMT
TAF
KLMT 220549Z 2206/2306 25020G30KT P6SM SCT025 BKN035 BKN100
     FM220900 27012G23KT P6SM BKN020=



000
FTUS46 KMFR 220549
TAFOTH
TAF
KOTH 220549Z 2206/2306 24010G15KT 3SM -RA BR BKN004 OVC008
     FM220900 17005KT P6SM SCT010 OVC020
     FM221100 15004KT 2SM BR OVC008=



000
FTUS46 KMFR 220549
TAFRBG
TAF
KRBG 220549Z 2206/2306 00000KT 3SM -RA BR OVC005
     FM221000 00000KT 4SM BR OVC004
     FM221300 00000KT 1/2SM FG OVC002=



000
FTUS46 KMFR 220549
TAFMFR
TAF
KMFR 220549Z 2206/2306 15003KT P6SM VCSH SCT040 BKN050 OVC100
     FM220900 00000KT 5SM -SHRA BR FEW003 BKN020 OVC035
     FM221300 00000KT 1/2SM FG OVC002=



000
FTUS46 KMFR 212339
TAFMFR
TAF
KMFR 212339Z 2200/2224 VRB03KT P6SM VCSH BKN035 OVC050
     FM220400 VRB02KT 5SM BR VCSH OVC007
     FM220900 00000KT 2SM BR VCSH OVC005
     FM221300 00000KT 1/2SM FG OVC002=



000
FTUS46 KMFR 212339
TAFLMT
TAF
KLMT 212339Z 2200/2224 26018G28KT 6SM -RA BR SCT020 BKN025 OVC040
     FM220500 27008KT P6SM VCSH OVC012
     FM221200 27008KT 4SM BR OVC020=



000
FTUS46 KMFR 212339
TAFOTH
TAF
KOTH 212339Z 2200/2224 24007KT 5SM -RA BR BKN008 OVC014
      TEMPO 2200/2203 1SM RA BR OVC005
     FM220300 21007KT 6SM -RA BR OVC015
     FM220900 17005KT P6SM SCT010 OVC020
     FM221100 15004KT 2SM BR OVC008=



000
FTUS46 KMFR 212339
TAFRBG
TAF
KRBG 212339Z 2200/2224 VRB03KT 6SM -RA BR SCT025 OVC035
     FM220400 00000KT 3SM -RA BR OVC005
     FM221000 00000KT 4SM BR OVC004
     FM221300 00000KT 1/2SM FG OVC002=



000
FTUS46 KMFR 212016 AAB
TAFOTH
TAF AMD
KOTH 212016Z 2120/2218 25011KT 1SM -RA BR SCT005 OVC020
     FM212100 24007KT 5SM -SHRA SCT008 BKN015 OVC025
     FM220300 21007KT 6SM -RA BR OVC015
     FM220900 17005KT P6SM SCT010 OVC020
     FM221100 15004KT 2SM BR OVC008=



000
FTUS46 KMFR 211814 AAA
TAFOTH
TAF AMD
KOTH 211814Z 2118/2218 24008KT 6SM -RA BR SCT015 OVC035
     FM212100 24007KT 5SM -SHRA SCT008 BKN015 OVC025
     FM220300 21007KT 6SM -RA BR OVC015
     FM220900 17005KT P6SM SCT010 OVC020
     FM221100 15004KT 2SM BR OVC008=



000
FTUS46 KMFR 211735
TAFLMT
TAF
KLMT 211735Z 2118/2218 26012KT 6SM -RA BR SCT020 OVC045
      WS020/27050KT
     FM220000 28014KT P6SM VCSH OVC015
     FM220500 27008KT P6SM VCSH OVC012
     FM221200 27008KT 4SM BR OVC020=



000
FTUS46 KMFR 211735
TAFMFR
TAF
KMFR 211735Z 2118/2218 27005KT 6SM -RA BR BKN035 OVC050
      WS020/26035KT
     FM212200 31005KT P6SM -RA SCT007 OVC015 WS020/26035KT
     FM220400 VRB02KT 5SM -SHRA BR OVC007
     FM220900 00000KT 4SM BR VCSH OVC005
     FM221300 00000KT 1/2SM FG OVC002=



000
FTUS46 KMFR 211735
TAFOTH
TAF
KOTH 211735Z 2118/2218 24012KT 2SM -RA BKN007 OVC015
     FM212100 24007KT 5SM -SHRA SCT008 BKN015 OVC025
     FM220300 21007KT 6SM -RA BR OVC015
     FM220900 17005KT P6SM SCT010 OVC020
     FM221100 15004KT 2SM BR OVC008=



000
FTUS46 KMFR 211735
TAFRBG
TAF
KRBG 211735Z 2118/2218 VRB03KT 6SM -RA BR OVC025 WS020/26040KT
     FM212000 VRB02KT 4SM -RA BR SCT005 OVC025 WS020/26030KT
     FM220400 00000KT 3SM -RA BR OVC005
     FM221000 00000KT 4SM BR OVC004
     FM221300 00000KT 1/2SM FG OVC002=



000
FTUS46 KMFR 211448 AAA
TAFRBG
TAF AMD
KRBG 211448Z 2115/2212 16004KT 5SM -RA BR OVC035 WS020/26040KT
     FM212000 00000KT 4SM BR BKN005 OVC025 WS020/26030KT
     FM220600 00000KT 3SM BR OVC005
     FM221000 00000KT 1/2SM FG OVC004=



000
FTUS46 KMFR 211155
TAFMFR
TAF
KMFR 211155Z 2112/2212 03005KT 5SM -RA BR OVC040 WS020/26035KT
     FM211800 31003KT 6SM -RA BR OVC007 WS020/26035KT
     FM212100 33005KT P6SM -RA SCT007 OVC015 WS020/26035KT
     FM220300 00000KT 5SM -SHRA BR OVC007
     FM220900 00000KT 1/2SM FG OVC004=



000
FTUS46 KMFR 211155
TAFOTH
TAF
KOTH 211155Z 2112/2212 25012G17KT 3SM -RA BR OVC004
      TEMPO 2112/2116 1 1/2SM RA BR
     FM211600 24012KT 4SM -RA BKN007 OVC015
     FM212000 22007KT 5SM -SHRA BKN015 OVC025
     FM220600 18006KT P6SM -SHRA OVC015=



000
FTUS46 KMFR 211155
TAFLMT
TAF
KLMT 211155Z 2112/2212 21014KT P6SM -RA BKN025 OVC060 WS020/27050KT
     FM220000 28012KT P6SM OVC015 PROB30 2200/2203 P6SM -RA OVC015
     FM220900 27008KT 4SM BR OVC025=



000
FTUS46 KMFR 211155
TAFRBG
TAF
KRBG 211155Z 2112/2212 00000KT 5SM -RA BR OVC030 WS020/26040KT
     FM211400 16005KT 2SM -RA BR BKN007 OVC015 WS020/26040KT
     FM212000 00000KT 4SM BR SCT008 OVC012 WS020/26030KT
     FM220600 00000KT 3SM BR OVC005
     FM221000 00000KT 1/2SM FG OVC004=



000
FTUS46 KMFR 211155
TAFMFR
TAF
KMFR 211155Z 2112/2212 03005KT 5SM -RA BR OVC040 WS020/26035KT
     FM211800 31003KT 6SM -RA BR OVC007 WS020/26035KT
     FM212100 33005KT P6SM -RA SCT007 OVC015 WS020/26035KT
     FM220300 00000KT 5SM -SHRA BR OVC007
     FM220900 00000KT 1/2SM FG OVC004=



000
FTUS46 KMFR 211155
TAFOTH
TAF
KOTH 211155Z 2112/2212 25012G17KT 3SM -RA BR OVC004
      TEMPO 2112/2116 1 1/2SM RA BR
     FM211600 24012KT 4SM -RA BKN007 OVC015
     FM212000 22007KT 5SM -SHRA BKN015 OVC025
     FM220600 18006KT P6SM -SHRA OVC015=



000
FTUS46 KMFR 211155
TAFLMT
TAF
KLMT 211155Z 2112/2212 21014KT P6SM -RA BKN025 OVC060 WS020/27050KT
     FM220000 28012KT P6SM OVC015 PROB30 2200/2203 P6SM -RA OVC015
     FM220900 27008KT 4SM BR OVC025=



000
FTUS46 KMFR 211155
TAFRBG
TAF
KRBG 211155Z 2112/2212 00000KT 5SM -RA BR OVC030 WS020/26040KT
     FM211400 16005KT 2SM -RA BR BKN007 OVC015 WS020/26040KT
     FM212000 00000KT 4SM BR SCT008 OVC012 WS020/26030KT
     FM220600 00000KT 3SM BR OVC005
     FM221000 00000KT 1/2SM FG OVC004=



000
FTUS46 KMFR 210912 AAA
TAFMFR
TAF AMD
KMFR 210912Z 2109/2206 00000KT P6SM -RA FEW010 SCT025 OVC040
     FM211000 00000KT 4SM -RA BR SCT003 OVC030
     FM211200 VRB03KT 2SM -RA BR OVC007
     FM211600 VRB03KT 5SM -RA BR SCT007 BKN015 OVC025=



000
FTUS46 KMFR 210536 CCB
TAFMFR
TAF COR
KMFR 210536Z 2106/2206 VRB03KT 5SM -RA BR FEW002 OVC035
     FM210900 00000KT 1SM RA BR OVC008
     FM211600 VRB03KT 5SM -RA BR BKN015 OVC025=



000
FTUS46 KMFR 210535 CCA
TAFRBG
TAF COR
KRBG 210535Z 2106/2206 18005KT 6SM -RA BR SCT015 BKN025 OVC050
     FM211400 16005KT 5SM -RA BR OVC007
     FM212000 21006KT 5SM -RA BR BKN015 OVC025=



000
FTUS46 KMFR 210531
TAFMFR
TAF
KMFR 210531Z 2106/2206 VRB03KT 2SM RA BR FEW002 OVC035
     FM210900 00000KT 1SM RA BR OVC008
     FM211600 VRB03KT 5SM -RA BR BKN015 OVC025=



000
FTUS46 KMFR 210531
TAFLMT
TAF
KLMT 210531Z 2106/2206 21015KT P6SM -RA SCT025 BKN045 OVC070
     FM210900 23010KT 5SM -RA BR BKN025 OVC040
     FM211200 20006KT 6SM RA BR OVC020
     FM211600 27006KT P6SM -RA BKN025 OVC040
     FM212000 27012G18KT P6SM -RA BKN035 OVC050=



000
FTUS46 KMFR 210531
TAFOTH
TAF
KOTH 210531Z 2106/2206 21014G22KT 2SM RA BR OVC006
     FM211100 23015G24KT 4SM -RA BR OVC015
     FM212000 27010KT P6SM -RA BKN015 OVC025=



000
FTUS46 KMFR 210531
TAFRBG
TAF
KRBG 210531Z 2106/2206 18005KT 3SM RA BR SCT015 BKN025 OVC050
     FM211400 16005KT 5SM -RA BR OVC007
     FM212000 21006KT 5SM -RA BR BKN015 OVC025=



000
FTUS46 KMFR 202339
TAFMFR
TAF
KMFR 202339Z 2100/2124 VRB04KT 5SM RA BR BKN025 OVC040
     FM210400 VRB03KT 2SM RA BR OVC012
     FM210900 00000KT 1SM RA BR OVC008
     FM211600 VRB03KT 5SM -RA BR BKN015 OVC025=



000
FTUS46 KMFR 202339
TAFRBG
TAF
KRBG 202339Z 2100/2124 17005KT 4SM RA BR BKN025 OVC050
     FM210400 18004KT 3SM RA BR OVC007
     FM211400 19002KT 3SM -RA BR OVC004
     FM212000 21006KT 5SM -RA BR BKN015 OVC025=



000
FTUS46 KMFR 202339
TAFLMT
TAF
KLMT 202339Z 2100/2124 20006KT P6SM -RA BKN025 OVC040
     FM210700 20006KT 6SM RA BR OVC020
     FM211600 27006KT P6SM -RA BKN025 OVC040
     FM212000 27012G18KT P6SM -RA BKN035 OVC050=



000
FTUS46 KMFR 202339
TAFOTH
TAF
KOTH 202339Z 2100/2124 21014G22KT 2SM RA BR BKN009 OVC020
     FM211100 23015G24KT 4SM -RA BR OVC015
     FM212000 27010KT P6SM -RA BKN015 OVC025=



000
FTUS46 KMFR 202149 AAA
TAFOTH
TAF AMD
KOTH 202149Z 2022/2118 21020G30KT 2SM RA BR BKN010 OVC020
     FM211100 23015G24KT P6SM -RA OVC015=



000
FTUS46 KMFR 201731
TAFRBG
TAF
KRBG 201731Z 2018/2118 17007KT 6SM -RA BR SCT025 OVC050
      WS020/20035KT
     FM202200 17005KT 5SM RA BR OVC015 WS020/20035KT
     FM210400 18008KT 4SM RA BR OVC007
     FM211400 19002KT 3SM -RA BR OVC004=



000
FTUS46 KMFR 201731
TAFMFR
TAF
KMFR 201731Z 2018/2118 VRB04KT 6SM -RA BR SCT001 OVC070
      WS020/20035KT
     FM202100 VRB03KT 4SM -RA BR OVC015 WS020/20035KT
     FM210400 VRB03KT 2SM RA BR OVC012 WS020/20035KT
     FM210900 00000KT 1SM RA BR OVC008 WS020/20035KT=



000
FTUS46 KMFR 201731
TAFOTH
TAF
KOTH 201731Z 2018/2118 19016G25KT 6SM RA BR SCT010 OVC020
     FM202000 20016G25KT 5SM RA BR OVC015
     FM210200 22020G29KT 2SM RA BR OVC012
     FM211100 23015G24KT P6SM -RA OVC015=



000
FTUS46 KMFR 201731
TAFLMT
TAF
KLMT 201731Z 2018/2118 18011KT P6SM -RA SCT025 OVC040
     FM202100 21012G20KT P6SM -RA OVC025
     FM210700 20009KT 6SM RA BR OVC020=



000
FTUS46 KMFR 201611 AAB
TAFLMT
TAF AMD
KLMT 201611Z 2016/2112 18012G20KT P6SM -RA SCT025 OVC040
     FM202100 20012G20KT P6SM -RA OVC015
     FM210300 20009KT 6SM -RA OVC025=



000
FTUS46 KMFR 201609 AAA
TAFOTH
TAF AMD
KOTH 201609Z 2016/2112 19012KT 6SM RA BR SCT010 OVC020
     FM202000 18018G27KT 5SM RA BR OVC015
     FM210000 19013G23KT 2SM -RA BR OVC008
     FM210300 21013G23KT 4SM -RA BR OVC015
     FM210900 24018KT P6SM -RA OVC015=



000
FTUS46 KMFR 201606 AAA
TAFRBG
TAF AMD
KRBG 201606Z 2016/2112 17005KT 6SM RA BR SCT025 OVC050
      WS020/20035KT
      TEMPO 2016/2020 2SM RA BR BKN025
     FM202000 17005KT 6SM -RA BR OVC010 WS020/20035KT
     FM210200 19002KT 4SM -RA BR OVC007
     FM210900 19002KT 2SM -RA BR OVC004=



000
FTUS46 KMFR 201157 AAA
TAFLMT
TAF AMD
KLMT 201157Z 2012/2112 16009KT P6SM -RA OVC025 WS020/22035KT
     FM201500 18012G20KT P6SM -RA OVC025
     FM202100 20012G20KT P6SM -RA OVC015
     FM210300 20009KT 6SM -RA OVC025=



000
FTUS46 KMFR 201150
TAFLMT
TAF
KLMT 201150Z 2012/2112 16009KT P6SM -RA OVC025
     FM201400 18012G20KT P6SM -RA OVC025
     FM202100 19010KT P6SM -RA OVC015
     FM210300 19008KT 6SM -RA OVC025=



000
FTUS46 KMFR 201150
TAFOTH
TAF
KOTH 201150Z 2012/2112 18010G20KT P6SM -RA OVC014 WS020/20040KT
     FM201400 19020G30KT 4SM RA BR OVC014
     FM210000 19013G23KT 2SM -RA BR OVC008
     FM210300 21013G23KT 4SM -RA BR OVC015
     FM210900 24018KT P6SM -RA OVC015=



000
FTUS46 KMFR 201150
TAFMFR
TAF
KMFR 201150Z 2012/2112 00000KT 2SM -RA BR SCT002 OVC015
      WS020/20030KT
     FM202100 32002KT 4SM -RA BR OVC007 WS020/20035KT
     FM210300 00000KT 2SM -RA BR OVC007 WS020/20035KT
     FM210900 00000KT 1/2SM -RA FG OVC004 WS020/20035KT=



000
FTUS46 KMFR 201150
TAFRBG
TAF
KRBG 201150Z 2012/2112 VRB03KT 6SM RA BR BKN025 OVC040
      WS020/20035KT
      TEMPO 2016/2020 2SM RA BR BKN020
     FM202000 17005KT 6SM -RA BR OVC010 WS020/20035KT
     FM210200 19002KT 4SM -RA BR OVC007
     FM210900 19002KT 2SM -RA BR OVC004=



000
FTUS46 KMFR 200813 AAA
TAFOTH
TAF AMD
KOTH 200813Z 2008/2106 18010KT P6SM -RA BKN015 OVC025 WS020/20040KT
     FM201200 19020G30KT 5SM RA BR OVC025
     FM202100 20015G25KT 4SM RA BR OVC025=



000
FTUS46 KMFR 200808 AAA
TAFLMT
TAF AMD
KLMT 200808Z 2008/2106 16009KT P6SM OVC025
     FM201200 18015G25KT 3SM RASN OVC025
     FM201600 18015G25KT 5SM -RA BR OVC025=



000
FTUS46 KMFR 200804 AAA
TAFMFR
TAF AMD
KMFR 200804Z 2008/2106 00000KT 4SM -RA BR BKN008 BKN025 OVC070
     FM201300 14003KT 2SM -RA BR OVC004
     FM202100 VRB03KT 5SM -RA BR SCT007 OVC015=



000
FTUS46 KMFR 200804 AAA
TAFMFR
TAF AMD
KMFR 200804Z 2008/2106 00000KT 4SM -RA BR BKN008 BKN025 OVC070
     FM201300 14003KT 2SM -RA BR OVC004
     FM202100 VRB03KT 5SM -RA BR SCT007 OVC015=



000
FTUS46 KMFR 200541
TAFLMT
TAF
KLMT 200541Z 2006/2106 16009KT P6SM SCT025 OVC040
     FM201200 18015G25KT 3SM RASN OVC025
     FM201600 18015G25KT 5SM -RA BR OVC025=



000
FTUS46 KMFR 200541
TAFMFR
TAF
KMFR 200541Z 2006/2106 VRB03KT P6SM -RA BKN050 OVC060
     FM200900 15005KT 3SM -RA BR SCT007 BKN015 OVC025
     FM201500 14003KT 3SM -RA BR BKN007 OVC015
     FM202100 VRB03KT 5SM -RA BR SCT007 OVC015=



000
FTUS46 KMFR 200541
TAFOTH
TAF
KOTH 200541Z 2006/2106 18010KT P6SM -RA BKN035 WS020/20040KT
     FM201200 19020G30KT 5SM RA BR OVC025
     FM202100 20015G25KT 4SM RA BR OVC025=



000
FTUS46 KMFR 200541
TAFRBG
TAF
KRBG 200541Z 2006/2106 VRB03KT 6SM -RA BR BKN035 OVC050
     FM201000 17005KT 6SM -RA BR BKN025 OVC040 WS020/20040KT
     FM201200 18006KT 5SM RA BR OVC015 WS020/21040KT
     FM201500 17011KT 5SM RA BR OVC015
     FM210000 18005KT 5SM -RA BR SCT007 OVC015=



000
FTUS46 KMFR 192351 CCA
TAFMFR
TAF COR
KMFR 192351Z 2000/2024 VRB03KT P6SM VCSH SCT025 BKN040 OVC060
     FM200900 15005KT 3SM -RA BR SCT007 BKN015 OVC025 WS020/20035KT=



000
FTUS46 KMFR 192349
TAFRBG
TAF
KRBG 192349Z 2000/2024 16004KT P6SM SCT025 BKN040 BKN090
     FM200500 VRB03KT P6SM BKN035 OVC050 WS020/20040KT
     FM200800 17005KT P6SM -RA BKN025 OVC040 WS020/20040KT
     FM201200 18006KT 5SM RA BR OVC015 WS020/21040KT=



000
FTUS46 KMFR 192349
TAFMFR
TAF
KMFR 192349Z 2000/2024 VRB03KT P6SM VCSH BKN025 OVC060
     FM200900 15005KT 3SM -RA BR SCT007 BKN015 OVC025 WS020/20035KT=



000
FTUS46 KMFR 192349
TAFOTH
TAF
KOTH 192349Z 2000/2024 15007KT P6SM BKN025 OVC060
     FM200400 18010KT P6SM -RA BKN035 WS020/20040KT
     FM200800 18020G30KT 5SM RA BR OVC025=



000
FTUS46 KMFR 192349
TAFLMT
TAF
KLMT 192349Z 2000/2024 26010KT P6SM VCSH BKN040 OVC080
     FM200300 18004KT P6SM VCSH SCT025 BKN040 OVC070
     FM200600 18008KT 5SM -SN BR BKN025 OVC040
     FM201200 18015G25KT 3SM RASN OVC025=



    US Dept of Commerce
    National Oceanic and Atmospheric Administration
    National Weather Service
    1325 East West Highway
    Silver Spring, MD 20910
    Page Author: NWS Internet Services Team
Disclaimer
Information Quality
Credits
Glossary
Privacy Policy
Freedom of Information Act (FOIA)
About Us
Career Opportunities